createdAt,value
2018-08-13T00:02:07.703Z,61.00
2018-08-13T00:04:37.137Z,61.00
2018-08-13T00:07:06.501Z,60.90
2018-08-13T00:09:42.447Z,61.30
2018-08-13T00:12:13.131Z,61.40
2018-08-13T00:14:42.504Z,61.10
2018-08-13T00:17:11.927Z,62.00
2018-08-13T00:19:42.142Z,62.50
2018-08-13T00:22:11.543Z,61.70
2018-08-13T00:24:40.942Z,61.50
2018-08-13T00:27:10.287Z,62.20
2018-08-13T00:29:39.628Z,62.60
2018-08-13T00:32:08.952Z,62.50
2018-08-13T00:34:38.340Z,62.60
2018-08-13T00:37:07.691Z,62.00
2018-08-13T00:39:38.036Z,62.70
2018-08-13T00:42:08.085Z,62.60
2018-08-13T00:44:37.480Z,62.20
2018-08-13T00:47:06.911Z,62.80
2018-08-13T00:49:36.949Z,62.70
2018-08-13T00:52:06.316Z,62.10
2018-08-13T00:54:36.193Z,62.20
2018-08-13T00:57:05.904Z,62.70
2018-08-13T00:59:35.232Z,62.80
2018-08-13T01:02:04.639Z,62.80
2018-08-13T01:04:33.993Z,62.20
2018-08-13T01:07:03.505Z,62.20
2018-08-13T01:09:33.931Z,62.20
2018-08-13T01:12:03.454Z,61.40
2018-08-13T01:14:32.984Z,62.70
2018-08-13T01:17:02.487Z,63.50
2018-08-13T01:19:32.052Z,63.00
2018-08-13T01:22:01.584Z,63.10
2018-08-13T01:24:30.866Z,62.50
2018-08-13T01:27:00.161Z,62.80
2018-08-13T01:29:29.546Z,63.40
2018-08-13T01:31:58.886Z,63.20
2018-08-13T01:34:28.389Z,64.00
2018-08-13T01:36:57.905Z,64.20
2018-08-13T01:39:27.235Z,63.20
2018-08-13T01:41:57.095Z,64.20
2018-08-13T01:44:26.384Z,64.10
2018-08-13T01:46:55.748Z,64.50
2018-08-13T01:49:25.235Z,65.00
2018-08-13T01:51:54.564Z,65.10
2018-08-13T01:54:24.423Z,65.10
2018-08-13T01:56:53.847Z,65.40
2018-08-13T01:59:23.254Z,65.10
2018-08-13T02:01:53.375Z,65.10
2018-08-13T02:04:22.832Z,65.20
2018-08-13T02:06:52.329Z,65.70
2018-08-13T02:09:21.802Z,67.10
2018-08-13T02:11:51.240Z,66.20
2018-08-13T02:14:22.110Z,66.20
2018-08-13T02:16:51.526Z,67.10
2018-08-13T02:19:21.206Z,66.80
2018-08-13T02:21:50.666Z,66.60
2018-08-13T02:24:20.123Z,66.60
2018-08-13T02:26:49.570Z,67.20
2018-08-13T02:29:19.044Z,66.80
2018-08-13T02:31:48.918Z,66.40
2018-08-13T02:34:18.440Z,67.20
2018-08-13T02:36:48.132Z,67.10
2018-08-13T02:39:17.531Z,66.70
2018-08-13T02:41:47.016Z,67.20
2018-08-13T02:44:16.535Z,66.70
2018-08-13T02:46:45.874Z,67.40
2018-08-13T02:49:15.916Z,66.60
2018-08-13T02:51:45.265Z,66.70
2018-08-13T02:54:15.597Z,67.40
2018-08-13T02:56:45.014Z,66.90
2018-08-13T02:59:14.506Z,66.80
2018-08-13T03:01:44.687Z,67.20
2018-08-13T03:04:14.085Z,66.80
2018-08-13T03:06:43.444Z,66.00
2018-08-13T03:09:13.352Z,66.40
2018-08-13T03:11:42.635Z,65.90
2018-08-13T03:14:12.071Z,66.40
2018-08-13T03:16:41.402Z,66.50
2018-08-13T03:19:11.595Z,66.90
2018-08-13T03:21:41.785Z,66.50
2018-08-13T03:24:11.214Z,66.80
2018-08-13T03:26:40.540Z,66.60
2018-08-13T03:29:09.900Z,67.10
2018-08-13T03:31:39.299Z,67.50
2018-08-13T03:34:08.692Z,67.60
2018-08-13T03:36:38.053Z,68.40
2018-08-13T03:39:10.657Z,67.80
2018-08-13T03:41:40.359Z,67.50
2018-08-13T03:44:10.494Z,68.10
2018-08-13T03:46:39.878Z,67.80
2018-08-13T03:49:10.695Z,67.80
2018-08-13T03:51:41.570Z,69.00
2018-08-13T03:54:11.594Z,68.20
2018-08-13T03:56:41.399Z,68.90
2018-08-13T03:59:10.821Z,68.80
2018-08-13T04:01:40.790Z,68.80
2018-08-13T04:04:11.179Z,69.10
2018-08-13T04:06:41.287Z,69.50
2018-08-13T04:09:10.660Z,69.00
2018-08-13T04:11:40.163Z,68.50
2018-08-13T04:14:09.843Z,67.80
2018-08-13T04:16:39.521Z,67.70
2018-08-13T04:19:09.506Z,67.00
2018-08-13T04:21:38.776Z,66.90
2018-08-13T04:24:08.300Z,66.80
2018-08-13T04:26:38.232Z,65.70
2018-08-13T04:29:07.681Z,65.30
2018-08-13T04:31:37.025Z,64.90
2018-08-13T04:34:06.988Z,64.50
2018-08-13T04:36:36.423Z,65.00
2018-08-13T04:39:09.062Z,64.00
2018-08-13T04:41:39.356Z,63.60
2018-08-13T04:44:08.964Z,63.40
2018-08-13T04:46:38.461Z,63.20
2018-08-13T04:49:07.736Z,63.20
2018-08-13T04:51:37.198Z,63.00
2018-08-13T04:54:06.588Z,63.20
2018-08-13T04:56:36.155Z,63.00
2018-08-13T04:59:05.638Z,63.00
2018-08-13T05:01:34.881Z,63.10
2018-08-13T05:04:05.452Z,63.50
2018-08-13T05:06:34.756Z,63.80
2018-08-13T05:09:06.103Z,65.20
2018-08-13T05:11:35.350Z,66.80
2018-08-13T05:14:04.861Z,68.70
2018-08-13T05:16:34.509Z,71.10
2018-08-13T05:19:04.085Z,73.20
2018-08-13T05:21:33.381Z,75.80
2018-08-13T05:24:03.195Z,78.00
2018-08-13T05:26:34.105Z,78.80
2018-08-13T05:29:03.387Z,81.20
2018-08-13T05:31:32.736Z,83.10
2018-08-13T05:34:02.168Z,84.80
2018-08-13T05:36:31.524Z,86.50
2018-08-13T05:39:01.596Z,86.90
2018-08-13T05:41:30.971Z,87.20
2018-08-13T05:44:05.263Z,88.50
2018-08-13T05:46:34.892Z,89.30
2018-08-13T05:49:04.460Z,90.20
2018-08-13T05:51:34.057Z,90.10
2018-08-13T05:54:04.147Z,90.10
2018-08-13T05:56:34.471Z,90.60
2018-08-13T05:59:03.848Z,91.10
2018-08-13T06:01:33.225Z,91.10
2018-08-13T06:04:02.546Z,91.20
2018-08-13T06:06:40.228Z,91.40
2018-08-13T06:09:11.552Z,91.70
2018-08-13T06:11:41.210Z,91.80
2018-08-13T06:14:10.647Z,91.90
2018-08-13T06:16:40.108Z,92.10
2018-08-13T06:19:09.420Z,92.50
2018-08-13T06:21:38.841Z,92.80
2018-08-13T06:24:08.185Z,93.30
2018-08-13T06:26:37.549Z,93.40
2018-08-13T06:29:06.989Z,93.90
2018-08-13T06:31:36.385Z,94.20
2018-08-13T06:34:05.933Z,94.50
2018-08-13T06:36:35.283Z,94.30
2018-08-13T06:39:08.098Z,94.90
2018-08-13T06:41:37.550Z,94.90
2018-08-13T06:44:07.060Z,95.50
2018-08-13T06:46:37.261Z,96.20
2018-08-13T06:49:07.026Z,96.00
2018-08-13T06:51:36.396Z,96.10
2018-08-13T06:54:05.772Z,96.60
2018-08-13T06:56:35.263Z,96.90
2018-08-13T06:59:04.724Z,97.30
2018-08-13T07:01:34.075Z,97.00
2018-08-13T07:04:03.397Z,97.10
2018-08-13T07:06:32.855Z,97.60
2018-08-13T07:09:02.212Z,97.40
2018-08-13T07:11:32.131Z,97.40
2018-08-13T07:14:01.477Z,97.60
2018-08-13T07:16:30.845Z,97.70
2018-08-13T07:19:00.236Z,97.50
2018-08-13T07:21:29.617Z,97.80
2018-08-13T07:23:58.975Z,97.80
2018-08-13T07:26:28.950Z,97.50
2018-08-13T07:28:58.996Z,97.30
2018-08-13T07:31:28.593Z,97.50
2018-08-13T07:33:57.978Z,97.70
2018-08-13T07:36:27.410Z,98.20
2018-08-13T07:38:56.850Z,99.00
2018-08-13T07:41:26.283Z,98.80
2018-08-13T07:43:55.647Z,98.70
2018-08-13T07:46:25.123Z,98.50
2018-08-13T07:48:54.748Z,98.60
2018-08-13T07:51:24.149Z,98.60
2018-08-13T07:53:53.525Z,98.20
2018-08-13T07:56:22.951Z,98.50
2018-08-13T07:58:53.615Z,98.30
2018-08-13T08:01:24.346Z,98.50
2018-08-13T08:03:53.678Z,98.60
2018-08-13T08:06:23.241Z,98.60
2018-08-13T08:08:52.677Z,98.70
2018-08-13T08:11:22.231Z,98.40
2018-08-13T08:13:51.736Z,98.60
2018-08-13T08:16:21.381Z,98.70
2018-08-13T08:18:50.776Z,98.50
2018-08-13T08:21:20.097Z,98.10
2018-08-13T08:23:49.558Z,98.10
2018-08-13T08:26:19.138Z,97.70
2018-08-13T08:28:48.512Z,97.50
2018-08-13T08:31:17.905Z,97.90
2018-08-13T08:33:47.321Z,97.40
2018-08-13T08:36:16.870Z,97.80
2018-08-13T08:38:46.290Z,97.60
2018-08-13T08:41:15.717Z,97.70
2018-08-13T08:43:45.279Z,97.50
2018-08-13T08:46:14.886Z,97.70
2018-08-13T08:48:44.448Z,98.00
2018-08-13T08:51:13.895Z,98.30
2018-08-13T08:53:43.466Z,99.20
2018-08-13T08:56:12.845Z,99.90
2018-08-13T08:58:42.352Z,99.90
2018-08-13T09:01:12.171Z,99.90
2018-08-13T09:03:41.675Z,99.90
2018-08-13T09:06:11.231Z,99.90
2018-08-13T09:08:40.679Z,99.90
2018-08-13T09:11:10.268Z,99.90
2018-08-13T09:13:41.165Z,99.90
2018-08-13T09:16:10.572Z,99.90
2018-08-13T09:19:51.593Z,99.90
2018-08-13T09:22:32.832Z,99.90
2018-08-13T09:25:13.437Z,99.90
2018-08-13T09:27:53.927Z,99.90
2018-08-13T09:30:34.440Z,99.90
2018-08-13T09:33:14.975Z,99.90
2018-08-13T09:35:44.456Z,99.90
2018-08-13T09:38:13.906Z,99.90
2018-08-13T09:40:43.459Z,99.90
2018-08-13T09:43:12.903Z,99.90
2018-08-13T09:45:42.354Z,99.90
2018-08-13T09:48:11.846Z,99.90
2018-08-13T09:50:41.225Z,99.90
2018-08-13T09:53:10.694Z,99.90
2018-08-13T09:55:40.321Z,99.90
2018-08-13T09:58:10.025Z,99.90
2018-08-13T10:00:44.742Z,99.90
2018-08-13T10:03:14.082Z,99.90
2018-08-13T10:05:43.580Z,99.90
2018-08-13T10:08:13.049Z,99.90
2018-08-13T10:10:42.502Z,99.70
2018-08-13T10:13:11.938Z,99.60
2018-08-13T10:15:41.306Z,99.80
2018-08-13T10:18:10.874Z,99.90
2018-08-13T10:20:40.892Z,99.90
2018-08-13T10:23:10.338Z,99.90
2018-08-13T10:25:39.897Z,99.90
2018-08-13T10:28:09.412Z,99.90
2018-08-13T10:30:38.868Z,99.90
2018-08-13T10:33:08.352Z,99.90
2018-08-13T10:35:39.492Z,99.90
2018-08-13T10:38:09.161Z,99.90
2018-08-13T10:40:39.278Z,99.90
2018-08-13T10:43:08.784Z,99.90
2018-08-13T10:45:38.194Z,99.90
2018-08-13T10:48:07.608Z,98.70
2018-08-13T10:50:36.963Z,98.40
2018-08-13T10:53:06.424Z,97.00
2018-08-13T10:55:35.714Z,97.10
2018-08-13T10:58:05.094Z,96.00
2018-08-13T11:00:34.457Z,94.30
2018-08-13T11:03:03.897Z,92.90
2018-08-13T11:05:33.376Z,91.80
2018-08-13T11:08:02.809Z,91.50
2018-08-13T11:10:32.294Z,91.70
2018-08-13T11:13:03.034Z,91.20
2018-08-13T11:15:32.443Z,91.70
2018-08-13T11:18:02.277Z,91.90
2018-08-13T11:20:31.774Z,92.40
2018-08-13T11:23:01.255Z,93.40
2018-08-13T11:25:30.929Z,93.60
2018-08-13T11:28:00.614Z,94.40
2018-08-13T11:30:30.162Z,93.20
2018-08-13T11:32:59.580Z,93.70
2018-08-13T11:35:28.981Z,94.00
2018-08-13T11:37:58.480Z,94.30
2018-08-13T11:40:28.060Z,94.50
2018-08-13T11:42:58.248Z,94.30
2018-08-13T11:45:28.180Z,94.40
2018-08-13T11:47:57.547Z,94.60
2018-08-13T11:50:27.557Z,94.80
2018-08-13T11:52:56.990Z,94.90
2018-08-13T11:55:26.409Z,94.30
2018-08-13T11:57:55.981Z,94.30
2018-08-13T12:00:25.430Z,94.60
2018-08-13T12:02:59.027Z,93.30
2018-08-13T12:05:28.869Z,92.60
2018-08-13T12:07:58.199Z,93.00
2018-08-13T12:10:27.592Z,93.30
2018-08-13T12:12:57.594Z,93.50
2018-08-13T12:15:26.920Z,94.40
2018-08-13T12:17:56.233Z,94.30
2018-08-13T12:20:25.658Z,94.10
2018-08-13T12:22:55.213Z,94.20
2018-08-13T12:25:27.087Z,93.40
2018-08-13T12:27:56.517Z,93.30
2018-08-13T12:30:26.150Z,94.10
2018-08-13T12:32:55.995Z,94.40
2018-08-13T12:35:26.175Z,95.10
2018-08-13T12:37:55.546Z,95.50
2018-08-13T12:40:24.799Z,95.80
2018-08-13T12:42:54.918Z,95.80
2018-08-13T12:45:24.988Z,96.20
2018-08-13T12:47:54.524Z,96.70
2018-08-13T12:50:23.813Z,97.00
2018-08-13T12:52:53.327Z,97.20
2018-08-13T12:55:22.691Z,97.50
2018-08-13T12:57:52.292Z,97.80
2018-08-13T13:00:21.660Z,97.90
2018-08-13T13:02:51.786Z,97.80
2018-08-13T13:05:21.117Z,98.20
2018-08-13T13:07:50.572Z,98.60
2018-08-13T13:10:20.009Z,98.90
2018-08-13T13:12:49.388Z,99.90
2018-08-13T13:15:20.250Z,99.90
2018-08-13T13:17:49.648Z,99.90
2018-08-13T13:20:21.515Z,99.90
2018-08-13T13:22:51.332Z,99.90
2018-08-13T13:25:21.108Z,99.90
2018-08-13T13:27:50.519Z,99.90
2018-08-13T13:30:19.920Z,99.90
2018-08-13T13:32:49.243Z,99.90
2018-08-13T13:35:18.660Z,99.90
2018-08-13T13:37:48.801Z,99.90
2018-08-13T13:40:18.537Z,99.90
2018-08-13T13:42:48.015Z,99.90
2018-08-13T13:45:17.923Z,99.90
2018-08-13T13:47:47.442Z,99.90
2018-08-13T13:50:18.151Z,99.90
2018-08-13T13:52:47.634Z,99.90
2018-08-13T13:55:17.538Z,99.90
2018-08-13T13:57:46.917Z,99.90
2018-08-13T14:00:18.432Z,99.90
2018-08-13T14:02:49.290Z,99.90
2018-08-13T14:05:18.759Z,98.60
2018-08-13T14:07:48.352Z,97.70
2018-08-13T14:10:20.424Z,98.00
2018-08-13T14:12:49.965Z,98.30
2018-08-13T14:15:20.474Z,98.60
2018-08-13T14:17:50.215Z,99.00
2018-08-13T14:20:19.800Z,99.00
2018-08-13T14:22:49.178Z,99.50
2018-08-13T14:25:19.893Z,99.90
2018-08-13T14:27:49.406Z,99.90
2018-08-13T14:30:23.135Z,99.90
2018-08-13T14:32:52.617Z,99.90
2018-08-13T14:35:23.107Z,99.90
2018-08-13T14:37:53.098Z,99.90
2018-08-13T14:40:25.230Z,99.90
2018-08-13T14:43:01.656Z,99.90
2018-08-13T14:45:34.138Z,99.90
2018-08-13T14:48:04.309Z,99.90
2018-08-13T14:50:39.429Z,99.90
2018-08-13T14:53:09.804Z,99.90
2018-08-13T14:55:43.904Z,99.90
2018-08-13T14:58:14.557Z,99.90
2018-08-13T15:00:53.884Z,99.90
2018-08-13T15:03:26.336Z,99.90
2018-08-13T15:05:56.871Z,99.90
2018-08-13T15:08:31.554Z,99.90
2018-08-13T15:11:01.546Z,99.90
2018-08-13T15:13:31.795Z,99.90
2018-08-13T15:16:03.621Z,99.90
2018-08-13T15:18:34.808Z,99.90
2018-08-13T15:21:04.542Z,99.90
2018-08-13T15:23:36.203Z,99.90
2018-08-13T15:26:07.885Z,99.90
2018-08-13T15:28:38.436Z,99.90
2018-08-13T15:31:08.370Z,99.90
2018-08-13T15:33:38.763Z,99.90
2018-08-13T15:36:08.442Z,99.90
2018-08-13T15:38:38.277Z,99.90
2018-08-13T15:41:08.320Z,99.90
2018-08-13T15:43:38.829Z,99.90
2018-08-13T15:46:09.112Z,99.90
2018-08-13T15:48:39.483Z,99.90
2018-08-13T15:51:08.988Z,99.90
2018-08-13T15:53:39.121Z,99.90
2018-08-13T15:56:08.834Z,99.90
2018-08-13T15:58:38.413Z,99.90
2018-08-13T16:01:09.072Z,99.90
2018-08-13T16:03:38.943Z,99.90
2018-08-13T16:06:08.626Z,99.90
2018-08-13T16:08:38.594Z,99.90
2018-08-13T16:11:09.218Z,99.90
2018-08-13T16:13:38.783Z,99.90
2018-08-13T16:16:08.669Z,99.90
2018-08-13T16:18:38.591Z,99.90
2018-08-13T16:21:08.520Z,99.90
2018-08-13T16:23:39.012Z,99.90
2018-08-13T16:26:08.420Z,99.90
2018-08-13T16:28:38.271Z,99.90
2018-08-13T16:31:08.323Z,99.90
2018-08-13T16:33:38.054Z,99.90
2018-08-13T16:36:07.758Z,99.90
2018-08-13T16:38:38.617Z,99.90
2018-08-13T16:41:09.449Z,99.90
2018-08-13T16:43:39.128Z,99.90
2018-08-13T16:46:10.295Z,99.90
2018-08-13T16:48:39.803Z,99.90
2018-08-13T16:51:11.182Z,99.90
2018-08-13T16:53:41.281Z,99.90
2018-08-13T16:56:12.051Z,99.90
2018-08-13T16:58:41.797Z,99.90
2018-08-13T17:01:12.796Z,99.90
2018-08-13T17:03:42.279Z,99.90
2018-08-13T17:06:12.753Z,99.90
2018-08-13T17:08:42.252Z,99.90
2018-08-13T17:11:11.720Z,99.90
2018-08-13T17:13:41.304Z,99.90
2018-08-13T17:16:11.106Z,99.90
2018-08-13T17:18:41.537Z,99.90
2018-08-13T17:21:12.385Z,99.90
2018-08-13T17:23:43.707Z,99.90
2018-08-13T17:26:13.313Z,99.90
2018-08-13T17:28:43.195Z,99.90
2018-08-13T17:31:13.096Z,99.90
2018-08-13T17:33:43.320Z,99.90
2018-08-13T17:36:13.042Z,99.90
2018-08-13T17:38:43.007Z,99.90
2018-08-13T17:41:13.973Z,99.90
2018-08-13T17:43:43.593Z,99.90
2018-08-13T17:46:13.200Z,99.90
2018-08-13T17:48:43.706Z,99.90
2018-08-13T17:51:13.379Z,99.90
2018-08-13T17:53:43.423Z,99.90
2018-08-13T17:56:13.188Z,99.90
2018-08-13T17:58:46.797Z,99.90
2018-08-13T18:01:17.055Z,99.90
2018-08-13T18:03:47.676Z,99.90
2018-08-13T18:06:18.325Z,99.90
2018-08-13T18:08:48.077Z,99.90
2018-08-13T18:11:18.018Z,99.90
2018-08-13T18:13:47.709Z,99.90
2018-08-13T18:16:18.140Z,99.90
2018-08-13T18:18:48.216Z,99.90
2018-08-13T18:21:19.096Z,99.90
2018-08-13T18:23:50.821Z,99.90
2018-08-13T18:26:21.241Z,99.90
2018-08-13T18:28:52.762Z,99.90
2018-08-13T18:31:22.753Z,99.90
2018-08-13T18:33:54.642Z,99.90
2018-08-13T18:36:24.967Z,99.90
2018-08-13T18:38:54.816Z,99.90
2018-08-13T18:41:24.644Z,99.90
2018-08-13T18:43:54.626Z,99.90
2018-08-13T18:46:25.009Z,99.90
2018-08-13T18:48:55.443Z,99.90
2018-08-13T18:51:25.955Z,99.90
2018-08-13T18:53:56.176Z,99.90
2018-08-13T18:56:26.106Z,99.90
2018-08-13T18:58:55.768Z,99.90
2018-08-13T19:01:26.322Z,99.90
2018-08-13T19:03:57.114Z,99.90
2018-08-13T19:06:26.880Z,99.90
2018-08-13T19:08:56.805Z,99.90
2018-08-13T19:11:26.642Z,99.90
2018-08-13T19:13:57.094Z,99.90
2018-08-13T19:16:26.800Z,99.90
2018-08-13T19:18:58.371Z,99.90
2018-08-13T19:21:28.375Z,99.90
2018-08-13T19:23:58.469Z,99.90
2018-08-13T19:26:28.375Z,99.90
2018-08-13T19:28:58.947Z,99.90
2018-08-13T19:31:28.682Z,99.90
2018-08-13T19:33:58.424Z,99.90
2018-08-13T19:36:32.046Z,99.90
2018-08-13T19:39:01.960Z,99.90
2018-08-13T19:41:31.723Z,99.90
2018-08-13T19:44:01.860Z,99.90
2018-08-13T19:46:31.736Z,99.90
2018-08-13T19:49:01.652Z,99.90
2018-08-13T19:51:31.635Z,99.90
2018-08-13T19:54:02.034Z,99.90
2018-08-13T19:56:31.914Z,99.90
2018-08-13T19:59:01.693Z,99.90
2018-08-13T20:01:32.094Z,99.90
2018-08-13T20:04:01.926Z,99.90
2018-08-13T20:06:31.651Z,99.90
2018-08-13T20:09:01.341Z,99.90
2018-08-13T20:11:30.811Z,99.90
2018-08-13T20:14:00.662Z,99.90
2018-08-13T20:16:30.715Z,99.90
2018-08-13T20:19:00.976Z,99.90
2018-08-13T20:21:31.412Z,99.90
2018-08-13T20:24:01.181Z,99.90
2018-08-13T20:26:30.888Z,99.90
2018-08-13T20:29:01.538Z,99.90
2018-08-13T20:31:32.009Z,99.90
2018-08-13T20:34:01.640Z,99.90
2018-08-13T20:36:31.354Z,99.90
2018-08-13T20:39:03.423Z,99.90
2018-08-13T20:41:33.198Z,99.90
2018-08-13T20:44:03.044Z,99.90
2018-08-13T20:46:32.705Z,99.90
2018-08-13T20:49:02.333Z,99.90
2018-08-13T20:51:32.881Z,99.90
2018-08-13T20:54:02.944Z,99.90
2018-08-13T20:56:32.750Z,99.90
2018-08-13T20:59:02.447Z,99.90
2018-08-13T21:01:32.888Z,99.90
2018-08-13T21:04:02.644Z,99.90
2018-08-13T21:06:32.475Z,99.90
2018-08-13T21:09:02.198Z,99.90
2018-08-13T21:11:31.804Z,99.90
2018-08-13T21:14:01.572Z,99.90
2018-08-13T21:16:31.306Z,99.90
2018-08-13T21:19:01.077Z,99.90
2018-08-13T21:21:30.741Z,99.90
2018-08-13T21:24:01.198Z,99.90
2018-08-13T21:26:30.847Z,99.90
2018-08-13T21:29:00.548Z,99.90
2018-08-13T21:31:30.365Z,99.90
2018-08-13T21:34:00.994Z,99.90
2018-08-13T21:36:31.222Z,99.90
2018-08-13T21:39:00.935Z,99.90
2018-08-13T21:41:30.586Z,99.90
2018-08-13T21:44:00.279Z,99.90
2018-08-13T21:46:30.022Z,99.90
2018-08-13T21:48:59.608Z,99.90
2018-08-13T21:51:29.327Z,99.90
2018-08-13T21:53:58.929Z,99.90
2018-08-13T21:56:28.672Z,99.90
2018-08-13T21:58:58.336Z,99.90
2018-08-13T22:01:33.336Z,99.90
2018-08-13T22:04:03.000Z,99.90
2018-08-13T22:06:32.702Z,99.90
2018-08-13T22:09:02.377Z,99.90
2018-08-13T22:11:32.112Z,99.90
2018-08-13T22:14:01.895Z,99.90
2018-08-13T22:16:31.385Z,99.90
2018-08-13T22:19:00.960Z,99.90
2018-08-13T22:21:30.707Z,99.90
2018-08-13T22:24:11.185Z,99.90
2018-08-13T22:26:40.765Z,99.90
2018-08-13T22:29:10.340Z,99.90
2018-08-13T22:31:40.036Z,99.90
2018-08-13T22:34:10.061Z,99.90
2018-08-13T22:36:39.755Z,99.90
2018-08-13T22:39:09.689Z,99.90
2018-08-13T22:41:39.449Z,99.90
2018-08-13T22:44:10.063Z,99.90
2018-08-13T22:46:39.726Z,99.90
2018-08-13T22:49:09.624Z,99.90
2018-08-13T22:51:39.318Z,99.90
2018-08-13T22:54:09.988Z,99.90
2018-08-13T22:56:39.863Z,99.90
2018-08-13T22:59:09.478Z,99.90
2018-08-13T23:01:39.265Z,99.90
2018-08-13T23:04:08.940Z,99.90
2018-08-13T23:06:39.128Z,99.90
2018-08-13T23:09:10.679Z,99.90
2018-08-13T23:11:40.413Z,99.90
2018-08-13T23:14:10.053Z,99.90
2018-08-13T23:16:39.659Z,99.90
2018-08-13T23:19:09.195Z,99.90
2018-08-13T23:21:38.831Z,99.90
2018-08-13T23:24:08.575Z,99.90
2018-08-13T23:26:38.470Z,99.90
2018-08-13T23:29:08.513Z,99.90
2018-08-13T23:31:38.090Z,99.90
2018-08-13T23:34:09.178Z,99.90
2018-08-13T23:36:38.744Z,99.90
2018-08-13T23:39:11.402Z,99.90
2018-08-13T23:41:41.559Z,99.90
2018-08-13T23:44:12.045Z,99.90
2018-08-13T23:46:41.896Z,99.90
2018-08-13T23:49:11.423Z,99.90
2018-08-13T23:51:41.051Z,99.90
2018-08-13T23:54:10.736Z,99.90
2018-08-13T23:56:41.282Z,99.90
2018-08-13T23:59:11.386Z,99.90
